Verret, Louisiana
Current Conditions -  °F | °C
As of 11:55 AM on Wednesday 26 Nov 2014 (Local Time) from KNBG Reporting Station
Clear Clear  
Wind Chill: 65°   Ceiling: Unl
Heat Index: 65°   Visibility: 10mi
Dew Point: 29°   Wind: 10mph
Humidity: 26%   Direction: 250°WSW
Pressure: 30.23"   Gusts: NA
Location:  29.8369°N, 89.7702°W
Report Text: KNBG 261755Z 25009KT 10SM CLR 18/M02 A3023 RMK AO2 SLP237 T01831017 10183 20006 58019 $
Loading
Personal Weather Stations






























Interactive Weather Map New forecast layout! Learn more

10-Day Weather Forecast

Advertisements
Track Severe Weather on mobile